Time;durP1;ratioP1;P1;durP2;ratioP2;P2;SDS_P1;SDS_P2;PMS_P1;PMS_P2;Temp;Humidity;BMP_temperature;BMP_pressure;BME280_temperature;BME280_humidity;BME280_pressure;Samples;Min_cycle;Max_cycle;Signal;HPM_P1;HPM_P2
2023/01/30 00:00:59;;;;;;;18.00;7.43;;;;;;;5.32;70.85;101269.81;4997853;28;20268;-70
2023/01/30 00:03:25;;;;;;;16.27;7.32;;;;;;;5.32;70.50;101263.69;4996650;28;20113;-70
2023/01/30 00:05:51;;;;;;;15.50;7.43;;;;;;;5.33;70.47;101265.47;4996188;28;20088;-70
2023/01/30 00:08:17;;;;;;;17.45;7.95;;;;;;;5.32;70.67;101266.31;4997893;28;20050;-70
2023/01/30 00:10:43;;;;;;;17.27;8.10;;;;;;;5.31;70.88;101269.75;4997817;28;20037;-70
2023/01/30 00:13:09;;;;;;;18.67;8.10;;;;;;;5.30;70.38;101265.38;4997547;28;20045;-70
2023/01/30 00:15:34;;;;;;;21.47;8.93;;;;;;;5.30;70.37;101267.97;4996202;28;20053;-70
2023/01/30 00:18:00;;;;;;;19.95;8.95;;;;;;;5.30;70.65;101262.75;4997720;28;20502;-70
2023/01/30 00:20:25;;;;;;;24.00;9.63;;;;;;;5.29;70.40;101255.75;4997363;28;20038;-70
2023/01/30 00:22:51;;;;;;;23.03;10.73;;;;;;;5.29;70.69;101253.13;4997514;28;20086;-70
2023/01/30 00:25:16;;;;;;;27.30;11.18;;;;;;;5.28;70.38;101267.03;5012557;28;20022;-70
2023/01/30 00:27:42;;;;;;;29.50;11.53;;;;;;;5.27;70.37;101255.69;4997623;28;20026;-70
2023/01/30 00:30:08;;;;;;;26.23;10.73;;;;;;;5.28;70.97;101257.47;4997154;28;20026;-70
2023/01/30 00:32:33;;;;;;;25.48;10.10;;;;;;;5.29;70.75;101258.38;4997539;28;20033;-70
2023/01/30 00:34:58;;;;;;;23.13;9.97;;;;;;;5.28;70.61;101252.25;4997433;28;20022;-70
2023/01/30 00:37:24;;;;;;;26.73;10.60;;;;;;;5.28;70.55;101251.38;5012191;28;20022;-70
2023/01/30 00:39:49;;;;;;;20.60;8.87;;;;;;;5.28;70.68;101256.59;4997503;28;20026;-70
2023/01/30 00:47:44;;;;;;;17.23;7.73;;;;;;;5.25;70.19;101246.03;4997101;28;20398;-70
2023/01/30 00:50:10;;;;;;;15.63;6.63;;;;;;;5.23;70.55;101247.72;4996505;28;20030;-70
2023/01/30 00:52:36;;;;;;;14.75;7.28;;;;;;;5.24;70.58;101249.50;4997020;28;20104;-70
2023/01/30 00:55:01;;;;;;;14.93;6.97;;;;;;;5.25;70.95;101240.81;4997091;28;20026;-70
2023/01/30 00:57:26;;;;;;;17.27;7.70;;;;;;;5.26;70.99;101248.69;4997071;28;20022;-70
2023/01/30 00:59:52;;;;;;;14.57;6.63;;;;;;;5.25;70.67;101246.03;5012400;28;20030;-70
2023/01/30 01:02:17;;;;;;;15.43;6.50;;;;;;;5.24;70.63;101250.38;4996945;28;20386;-70
2023/01/30 01:04:43;;;;;;;17.27;7.50;;;;;;;5.24;70.87;101246.88;4997174;28;20026;-70
2023/01/30 01:07:09;;;;;;;14.45;6.80;;;;;;;5.24;70.41;101244.28;4996863;28;20076;-70
2023/01/30 01:09:35;;;;;;;14.90;6.18;;;;;;;5.25;70.61;101253.88;5012008;28;20503;-70
2023/01/30 01:12:00;;;;;;;13.43;6.17;;;;;;;5.22;70.37;101244.22;4995709;28;20018;-70
2023/01/30 01:14:26;;;;;;;12.00;5.67;;;;;;;5.21;70.23;101244.19;4996886;28;20157;-70
2023/01/30 01:16:51;;;;;;;12.07;5.80;;;;;;;5.21;70.42;101244.19;4996969;28;20022;-70
2023/01/30 01:19:16;;;;;;;13.07;6.07;;;;;;;5.21;70.87;101250.25;4996954;28;20027;-70
2023/01/30 01:21:42;;;;;;;16.70;6.17;;;;;;;5.20;70.74;101247.63;5001267;28;20037;-70
2023/01/30 01:24:13;;;;;;;16.73;6.70;;;;;;;5.20;70.53;101252.84;4997084;28;20106;-70
2023/01/30 01:26:39;;;;;;;13.50;6.68;;;;;;;5.17;70.60;101249.25;4995637;28;20030;-70
2023/01/30 01:29:04;;;;;;;15.03;6.13;;;;;;;5.16;70.38;101250.09;5011799;28;20031;-70
2023/01/30 01:31:29;;;;;;;15.05;6.65;;;;;;;5.17;70.46;101253.63;4996752;28;20019;-70
2023/01/30 01:33:55;;;;;;;15.60;6.47;;;;;;;5.15;70.58;101255.28;4995437;28;20034;-70
2023/01/30 01:36:22;;;;;;;14.27;6.30;;;;;;;5.13;70.78;101263.06;4996700;28;20054;-70
2023/01/30 01:38:47;;;;;;;15.13;6.67;;;;;;;5.12;70.59;101261.28;4996977;28;20031;-70
2023/01/30 01:41:15;;;;;;;16.38;7.20;;;;;;;5.12;70.88;101265.63;4995827;28;20027;-70
2023/01/30 01:44:01;;;;;;;16.53;6.10;;;;;;;5.07;67.56;101261.97;4996869;28;20030;-70
2023/01/30 01:46:37;;;;;;;12.38;6.00;;;;;;;5.08;70.58;101271.59;5018701;28;20034;-70
2023/01/30 01:49:12;;;;;;;16.80;6.43;;;;;;;5.06;70.89;101276.75;4983817;28;20085;-70
2023/01/30 01:51:41;;;;;;;16.08;6.97;;;;;;;5.07;70.84;101273.28;4996496;28;20026;-70
2023/01/30 01:54:13;;;;;;;15.25;6.65;;;;;;;5.08;71.04;101279.41;4996791;28;20030;-70
2023/01/30 01:56:42;;;;;;;13.90;6.77;;;;;;;5.09;71.13;101281.19;4996687;28;20033;-70
2023/01/30 01:59:19;;;;;;;14.65;6.57;;;;;;;5.08;70.82;101287.25;4996673;28;20033;-70
2023/01/30 02:01:44;;;;;;;15.55;7.00;;;;;;;5.07;71.26;101283.75;4999385;28;20037;-70
2023/01/30 02:04:11;;;;;;;16.00;6.67;;;;;;;5.06;71.47;101287.19;5000202;28;20026;-70
2023/01/30 02:06:40;;;;;;;17.10;6.67;;;;;;;5.05;70.78;101294.94;4999788;28;20270;-70
2023/01/30 02:09:09;;;;;;;15.93;7.07;;;;;;;5.03;70.79;101292.31;4999800;28;20043;-70
2023/01/30 02:11:51;;;;;;;13.45;6.03;;;;;;;5.01;70.25;101299.19;4999934;28;20054;-70
2023/01/30 02:14:18;;;;;;;15.20;6.50;;;;;;;5.03;71.21;101302.75;4998499;28;20109;-70
2023/01/30 02:16:46;;;;;;;14.77;6.15;;;;;;;5.02;70.91;101301.84;4999929;28;20037;-70
2023/01/30 02:19:23;;;;;;;13.03;6.20;;;;;;;5.00;68.97;101307.84;4999729;28;20030;-70
2023/01/30 02:22:30;;;;;;;14.27;6.60;;;;;;;4.96;68.77;101305.97;4998081;28;20030;-70
2023/01/30 02:25:23;;;;;;;15.32;6.70;;;;;;;4.99;69.83;101311.31;4999732;28;20058;-70
2023/01/30 02:27:57;;;;;;;13.52;6.30;;;;;;;5.00;70.89;101315.69;4999589;28;20026;-70
2023/01/30 02:30:41;;;;;;;14.23;6.57;;;;;;;4.97;70.36;101308.63;4998014;28;20034;-70
2023/01/30 02:33:29;;;;;;;15.17;6.33;;;;;;;4.95;68.33;101309.44;4999488;28;20173;-70
2023/01/30 02:36:15;;;;;;;12.10;5.32;;;;;;;4.94;68.99;101308.53;4999263;28;20022;-70
2023/01/30 02:38:52;;;;;;;11.98;5.82;;;;;;;4.92;69.56;101304.97;4998592;28;20034;-70
2023/01/30 02:41:23;;;;;;;15.48;6.40;;;;;;;4.89;70.38;101297.91;4999559;28;20045;-70
2023/01/30 02:44:05;;;;;;;10.98;5.15;;;;;;;4.87;70.31;101296.09;4999315;28;20037;-70
2023/01/30 02:46:36;;;;;;;10.97;5.23;;;;;;;4.87;71.27;101298.72;5002004;28;20022;-70
2023/01/30 02:49:25;;;;;;;10.90;4.60;;;;;;;4.78;66.98;101295.75;4999052;28;20030;-70
2023/01/30 02:51:51;;;;;;;10.75;4.43;;;;;;;4.79;70.17;101290.59;4998983;28;20034;-70
2023/01/30 02:54:17;;;;;;;12.27;4.93;;;;;;;4.79;70.35;101281.84;4999222;28;20057;-70
2023/01/30 02:56:51;;;;;;;10.57;4.67;;;;;;;4.78;70.45;101285.31;4999174;28;20109;-70
2023/01/30 02:59:29;;;;;;;10.70;4.50;;;;;;;4.77;70.40;101278.31;4999171;28;20030;-70
2023/01/30 03:02:33;;;;;;;10.98;4.30;;;;;;;4.74;68.28;101289.53;4999004;28;20026;-70
2023/01/30 03:05:29;;;;;;;8.73;4.00;;;;;;;4.74;69.05;101274.75;4999414;28;20077;-70
2023/01/30 03:07:57;;;;;;;9.82;4.30;;;;;;;4.78;70.68;101270.56;4998580;28;20049;-70
2023/01/30 03:10:32;;;;;;;8.65;4.20;;;;;;;4.76;68.71;101271.31;4997709;28;20092;-70
2023/01/30 03:13:09;;;;;;;10.45;4.45;;;;;;;4.78;70.50;101270.56;4997929;28;20057;-70
2023/01/30 03:15:42;;;;;;;9.90;4.50;;;;;;;4.77;70.03;101268.78;4998893;28;20049;-70
2023/01/30 03:18:08;;;;;;;9.97;4.40;;;;;;;4.78;70.23;101270.56;4998954;28;20034;-70
2023/01/30 03:20:40;;;;;;;8.75;4.20;;;;;;;4.78;69.39;101262.72;4998514;28;20057;-70
2023/01/30 03:23:07;;;;;;;9.55;4.22;;;;;;;4.81;69.74;101265.44;4998741;28;20030;-70
2023/01/30 03:25:34;;;;;;;11.65;4.43;;;;;;;4.82;70.18;101262.00;4998750;28;20064;-70
2023/01/30 03:28:02;;;;;;;8.73;4.40;;;;;;;4.83;69.88;101275.94;4998603;28;20049;-70
2023/01/30 03:30:28;;;;;;;7.80;3.70;;;;;;;4.84;70.08;101275.09;4998306;28;20030;-70
2023/01/30 03:32:54;;;;;;;8.85;3.67;;;;;;;4.84;70.48;101273.38;4998522;28;20502;-70
2023/01/30 03:35:19;;;;;;;9.80;3.60;;;;;;;4.84;69.75;101275.09;4998054;28;20511;-70
2023/01/30 03:37:45;;;;;;;9.93;4.07;;;;;;;4.84;69.92;101280.31;4998619;28;20033;-70
2023/01/30 03:40:13;;;;;;;8.83;4.03;;;;;;;4.83;69.57;101283.78;4998680;28;20026;-70
2023/01/30 03:42:39;;;;;;;8.60;3.63;;;;;;;4.83;69.89;101284.66;4996959;28;20053;-70
2023/01/30 03:45:05;;;;;;;8.10;3.40;;;;;;;4.82;69.54;101279.34;4998159;28;20431;-70
2023/01/30 03:47:30;;;;;;;7.78;3.10;;;;;;;4.78;68.48;101286.22;4998263;28;20034;-70
2023/01/30 03:49:56;;;;;;;7.53;3.10;;;;;;;4.77;68.99;101289.66;5013282;28;20042;-70
2023/01/30 03:52:21;;;;;;;8.43;3.57;;;;;;;4.75;68.92;101299.16;4998007;28;20106;-70
2023/01/30 03:54:46;;;;;;;8.20;3.50;;;;;;;4.72;69.13;101296.44;4998204;28;20026;-70
2023/01/30 03:57:12;;;;;;;8.25;3.80;;;;;;;4.71;69.36;101299.88;4998048;28;20027;-70
2023/01/30 03:59:37;;;;;;;8.90;3.40;;;;;;;4.72;69.42;101301.66;4998017;28;20031;-70
2023/01/30 04:02:03;;;;;;;8.63;3.63;;;;;;;4.72;69.66;101306.88;4997997;28;20391;-70
2023/01/30 04:04:28;;;;;;;8.93;3.60;;;;;;;4.74;69.48;101310.41;4998116;28;20506;-70
2023/01/30 04:06:54;;;;;;;7.80;3.55;;;;;;;4.74;69.27;101310.41;4997505;28;20036;-70
2023/01/30 04:09:19;;;;;;;8.27;3.77;;;;;;;4.73;69.38;101308.66;4997728;28;20061;-70
2023/01/30 04:11:44;;;;;;;8.63;3.73;;;;;;;4.71;68.96;101310.31;4997987;28;20010;-70
2023/01/30 04:14:10;;;;;;;9.33;3.70;;;;;;;4.70;69.43;101313.72;4997724;28;20022;-70
2023/01/30 04:16:35;;;;;;;9.52;3.55;;;;;;;4.71;69.42;101308.56;4997819;28;20026;-70
2023/01/30 04:19:01;;;;;;;8.77;4.13;;;;;;;4.72;69.39;101312.97;4997608;28;20057;-70
2023/01/30 04:21:26;;;;;;;8.47;3.53;;;;;;;4.72;68.90;101319.91;4997461;28;20499;-70
2023/01/30 04:23:52;;;;;;;8.70;3.80;;;;;;;4.73;69.58;101314.72;4997664;28;20057;-70
2023/01/30 04:26:17;;;;;;;9.43;3.57;;;;;;;4.72;69.19;101319.91;4997650;28;20019;-70
2023/01/30 04:28:43;;;;;;;9.63;3.75;;;;;;;4.70;69.65;101327.66;4997827;28;20030;-70
2023/01/30 04:31:09;;;;;;;10.47;3.77;;;;;;;4.70;69.63;101337.19;4996416;28;20041;-70
2023/01/30 04:33:34;;;;;;;9.30;3.90;;;;;;;4.69;69.29;101343.25;4997676;28;20030;-70
2023/01/30 04:36:02;;;;;;;9.87;3.87;;;;;;;4.65;69.21;101351.81;4995984;28;20026;-70
2023/01/30 04:38:28;;;;;;;8.77;3.63;;;;;;;4.61;68.99;101356.03;4997554;28;20065;-70
2023/01/30 04:40:55;;;;;;;10.93;4.15;;;;;;;4.59;68.92;101360.31;4997400;28;20034;-70
2023/01/30 04:43:22;;;;;;;9.80;3.85;;;;;;;4.56;69.24;101363.69;4997374;28;20078;-70
2023/01/30 04:45:49;;;;;;;9.57;4.38;;;;;;;4.56;69.12;101371.50;4997388;28;20042;-70
2023/01/30 04:48:15;;;;;;;10.17;4.20;;;;;;;4.54;69.25;101386.22;4995929;28;20033;-70
2023/01/30 04:50:41;;;;;;;12.20;4.50;;;;;;;4.54;69.29;101387.91;4997283;28;20030;-70
2023/01/30 04:53:07;;;;;;;11.23;4.35;;;;;;;4.55;69.12;101382.78;4997140;28;20038;-70
2023/01/30 04:55:33;;;;;;;10.35;4.15;;;;;;;4.55;69.72;101382.78;4997408;28;20088;-70
2023/01/30 04:57:58;;;;;;;10.80;3.90;;;;;;;4.56;69.84;101379.34;4997308;28;20031;-70
2023/01/30 05:00:24;;;;;;;7.93;3.47;;;;;;;4.55;69.54;101371.44;4997457;28;20034;-70
2023/01/30 05:02:50;;;;;;;8.30;3.33;;;;;;;4.54;69.24;101370.56;4997045;28;20101;-70
2023/01/30 05:05:16;;;;;;;10.70;3.92;;;;;;;4.53;69.08;101376.59;4997383;28;20034;-70
2023/01/30 05:07:41;;;;;;;9.73;3.77;;;;;;;4.54;69.25;101369.66;4997049;28;20041;-70
2023/01/30 05:10:07;;;;;;;9.13;3.90;;;;;;;4.54;69.27;101357.50;4997431;28;20032;-70
2023/01/30 05:12:33;;;;;;;8.80;3.75;;;;;;;4.53;69.16;101353.13;4997162;28;20018;-70
2023/01/30 05:14:58;;;;;;;8.13;3.87;;;;;;;4.53;69.41;101347.91;4997275;28;20035;-70
2023/01/30 05:17:24;;;;;;;11.93;4.07;;;;;;;4.54;69.28;101354.91;4996868;28;20101;-70
2023/01/30 05:19:49;;;;;;;9.70;3.80;;;;;;;4.53;69.12;101353.13;4997417;28;20106;-70
2023/01/30 05:22:15;;;;;;;7.87;3.20;;;;;;;4.50;68.80;101342.59;4996963;28;20026;-70
2023/01/30 05:24:40;;;;;;;7.93;3.50;;;;;;;4.49;69.54;101334.69;4997151;28;20033;-70
2023/01/30 05:27:05;;;;;;;8.70;3.50;;;;;;;4.50;69.32;101337.38;4996340;28;20137;-70
2023/01/30 05:29:31;;;;;;;8.93;3.63;;;;;;;4.50;69.49;101346.91;4996967;28;20032;-70
2023/01/30 05:31:56;;;;;;;7.63;3.43;;;;;;;4.47;68.97;101347.69;4997221;28;20320;-70
2023/01/30 05:34:22;;;;;;;8.57;3.47;;;;;;;4.47;68.86;101347.69;4996902;28;20033;-70
2023/01/30 05:36:47;;;;;;;8.47;3.50;;;;;;;4.44;68.76;101342.31;5015030;28;20022;-70
2023/01/30 05:39:12;;;;;;;9.50;3.67;;;;;;;4.45;69.41;101351.94;5000716;28;20029;-70
2023/01/30 05:41:38;;;;;;;9.20;3.60;;;;;;;4.45;68.60;101359.75;5000680;28;20073;-70
2023/01/30 05:44:04;;;;;;;11.27;3.90;;;;;;;4.44;69.49;101350.16;5000800;28;20081;-70
2023/01/30 05:46:29;;;;;;;8.07;3.40;;;;;;;4.44;69.34;101348.44;5000728;28;20030;-70
2023/01/30 05:48:54;;;;;;;11.00;3.90;;;;;;;4.46;68.98;101348.47;5000207;28;20606;-70
2023/01/30 05:51:22;;;;;;;9.60;4.03;;;;;;;4.45;69.74;101354.53;5000382;28;20114;-70
2023/01/30 05:53:48;;;;;;;9.57;4.15;;;;;;;4.46;69.62;101358.91;5000443;28;20090;-70
2023/01/30 05:56:14;;;;;;;8.93;4.30;;;;;;;4.46;69.25;101361.53;5000462;28;20511;-70
2023/01/30 05:58:40;;;;;;;7.85;3.50;;;;;;;4.45;69.69;101370.19;5000341;28;20423;-70
2023/01/30 06:01:09;;;;;;;9.63;3.97;;;;;;;4.45;69.59;101370.19;5015485;28;20156;-70
2023/01/30 06:03:36;;;;;;;8.98;4.13;;;;;;;4.44;69.26;101365.78;5000139;28;20077;-70
2023/01/30 06:06:02;;;;;;;8.70;3.88;;;;;;;4.45;69.70;101367.56;5000234;28;20033;-70
2023/01/30 06:08:28;;;;;;;8.48;3.88;;;;;;;4.46;69.37;101374.56;5000064;28;20070;-70
2023/01/30 06:10:53;;;;;;;9.00;3.73;;;;;;;4.45;69.60;101375.41;5000352;28;20026;-70
2023/01/30 06:13:18;;;;;;;9.40;4.20;;;;;;;4.45;69.09;101375.41;4999990;28;20053;-70
2023/01/30 06:15:44;;;;;;;8.43;4.00;;;;;;;4.45;69.72;101380.63;4998794;28;20031;-70
2023/01/30 06:18:10;;;;;;;9.93;3.58;;;;;;;4.44;68.90;101374.53;4999878;28;20076;-70
2023/01/30 06:20:36;;;;;;;7.03;3.10;;;;;;;4.42;68.85;101376.19;4999746;28;20022;-70
2023/01/30 06:23:01;;;;;;;8.90;3.83;;;;;;;4.40;68.79;101384.78;4999579;28;20530;-70
2023/01/30 06:25:26;;;;;;;11.00;4.57;;;;;;;4.41;69.15;101373.50;4995536;28;20098;-70
2023/01/30 06:27:52;;;;;;;8.93;3.70;;;;;;;4.41;69.32;101371.81;4997525;28;20033;-70
2023/01/30 06:30:17;;;;;;;7.73;3.70;;;;;;;4.43;69.25;101374.44;4998391;28;20026;-70
2023/01/30 06:32:43;;;;;;;9.13;3.95;;;;;;;4.42;69.29;101370.97;4999459;28;20026;-70
2023/01/30 06:35:08;;;;;;;8.97;3.60;;;;;;;4.42;69.24;101377.88;4999443;28;20053;-70
2023/01/30 06:37:34;;;;;;;8.83;3.90;;;;;;;4.41;69.33;101374.41;4999580;28;20026;-70
2023/01/30 06:39:59;;;;;;;8.37;3.47;;;;;;;4.38;68.39;101362.97;4999821;28;20026;-70
2023/01/30 06:42:25;;;;;;;8.23;3.72;;;;;;;4.37;69.05;101371.59;4999456;28;20061;-70
2023/01/30 06:44:50;;;;;;;7.57;3.63;;;;;;;4.35;69.11;101363.75;4999526;28;20022;-70
2023/01/30 06:47:15;;;;;;;9.97;4.00;;;;;;;4.34;68.91;101353.25;4996779;28;20053;-70
2023/01/30 06:49:41;;;;;;;9.07;3.83;;;;;;;4.31;69.60;101357.50;4999572;28;20490;-70
2023/01/30 06:52:06;;;;;;;11.65;4.10;;;;;;;4.28;68.88;101352.19;4999034;28;20478;-70
2023/01/30 06:54:31;;;;;;;11.73;4.10;;;;;;;4.27;69.48;101358.22;4999477;28;20454;-69
2023/01/30 06:56:57;;;;;;;11.77;4.70;;;;;;;4.28;69.64;101359.09;4998082;28;20030;-69
2023/01/30 06:59:22;;;;;;;9.57;3.87;;;;;;;4.28;69.78;101365.22;4999329;28;20022;-69
2023/01/30 07:01:48;;;;;;;10.83;4.90;;;;;;;4.26;69.36;101361.66;4995648;28;20140;-70
2023/01/30 07:04:13;;;;;;;10.90;4.30;;;;;;;4.27;69.35;101370.34;4992607;28;20082;-70
2023/01/30 07:06:38;;;;;;;10.23;3.90;;;;;;;4.26;69.32;101364.28;4998798;28;20494;-70
2023/01/30 07:09:04;;;;;;;10.00;4.17;;;;;;;4.27;69.27;101365.13;4998950;28;20414;-70
2023/01/30 07:11:30;;;;;;;8.80;4.40;;;;;;;4.26;69.09;101369.50;4999013;28;20066;-69
2023/01/30 07:13:56;;;;;;;9.50;3.92;;;;;;;4.26;69.61;101359.06;4999010;28;20101;-70
2023/01/30 07:16:27;;;;;;;10.43;4.22;;;;;;;4.26;69.71;101366.88;4998677;28;20085;-69
2023/01/30 07:18:57;;;;;;;10.67;4.33;;;;;;;4.26;69.30;101366.88;4998627;28;20040;-74
2023/01/30 07:21:26;;;;;;;11.05;5.05;;;;;;;4.26;68.99;101374.69;4998266;28;20517;-70
2023/01/30 07:23:51;;;;;;;10.68;4.88;;;;;;;4.26;68.93;101384.22;4998874;28;20026;-70
2023/01/30 07:26:17;;;;;;;10.77;4.73;;;;;;;4.26;68.94;101385.13;4998821;28;20034;-69
2023/01/30 07:28:42;;;;;;;11.10;4.95;;;;;;;4.29;69.51;101385.25;4998791;28;20026;-68
2023/01/30 07:31:07;;;;;;;15.57;6.07;;;;;;;4.30;69.15;101392.25;4998195;28;20526;-69
2023/01/30 07:33:33;;;;;;;11.77;5.90;;;;;;;4.34;69.23;101393.25;4998718;28;20018;-69
2023/01/30 07:35:58;;;;;;;13.80;5.87;;;;;;;4.38;69.21;101389.03;4998344;28;20085;-69
2023/01/30 07:38:24;;;;;;;11.63;5.60;;;;;;;4.41;69.33;101386.53;4998304;28;20046;-69
2023/01/30 07:40:49;;;;;;;10.83;4.73;;;;;;;4.43;68.88;101385.78;4998218;28;20034;-69
2023/01/30 07:43:15;;;;;;;10.50;5.00;;;;;;;4.45;69.12;101378.00;4997471;28;20034;-69
2023/01/30 07:45:43;;;;;;;11.43;6.00;;;;;;;4.50;69.35;101384.31;4996964;28;20053;-69
2023/01/30 07:48:11;;;;;;;12.23;6.00;;;;;;;4.52;69.14;101386.97;4997831;28;20022;-69
2023/01/30 07:50:37;;;;;;;14.60;6.40;;;;;;;4.54;69.05;101385.31;4998066;28;20089;-68
2023/01/30 07:53:04;;;;;;;15.27;7.60;;;;;;;4.56;69.15;101387.16;4998091;28;20024;-69
2023/01/30 07:55:29;;;;;;;14.48;7.30;;;;;;;4.58;69.03;101388.09;4997943;28;20080;-69
2023/01/30 07:57:55;;;;;;;12.53;6.50;;;;;;;4.60;68.95;101391.66;4997991;28;20121;-69
2023/01/30 08:00:21;;;;;;;14.33;6.03;;;;;;;4.59;68.91;101389.88;4998103;28;20034;-69
2023/01/30 08:02:46;;;;;;;15.55;6.43;;;;;;;4.59;68.96;101383.78;4997881;28;20029;-69
2023/01/30 08:05:11;;;;;;;14.10;6.10;;;;;;;4.58;69.28;101388.09;4997636;28;20157;-69
2023/01/30 08:07:37;;;;;;;13.93;6.00;;;;;;;4.58;69.04;101393.31;5013169;28;20025;-68
2023/01/30 08:10:03;;;;;;;14.38;6.57;;;;;;;4.57;68.83;101396.75;4998177;28;20034;-69
2023/01/30 08:12:28;;;;;;;15.77;6.73;;;;;;;4.58;68.60;101393.31;4997990;28;20042;-69
2023/01/30 08:14:54;;;;;;;14.00;6.75;;;;;;;4.62;69.03;101396.03;4997614;28;20085;-69
2023/01/30 08:17:19;;;;;;;15.83;6.60;;;;;;;4.66;68.91;101393.63;4997532;28;20461;-69
2023/01/30 08:19:44;;;;;;;12.87;5.97;;;;;;;4.73;68.89;101397.34;4997899;28;20034;-69
2023/01/30 08:22:10;;;;;;;15.27;6.60;;;;;;;4.76;68.51;101402.69;4997415;28;20061;-69
2023/01/30 08:24:35;;;;;;;15.80;7.50;;;;;;;4.76;68.58;101409.63;4997745;28;20617;-69
2023/01/30 08:27:02;;;;;;;17.73;7.70;;;;;;;4.77;69.00;101409.69;4997708;28;20022;-69
2023/01/30 08:29:27;;;;;;;13.48;6.40;;;;;;;4.80;68.87;101415.03;4997853;28;20513;-69
2023/01/30 08:31:57;;;;;;;14.57;6.80;;;;;;;4.89;67.93;101431.03;4997637;28;20085;-69
2023/01/30 08:34:23;;;;;;;12.38;6.38;;;;;;;5.04;68.87;101432.44;4997419;28;20058;-69
2023/01/30 08:36:48;;;;;;;17.07;6.43;;;;;;;5.17;68.34;101442.50;4997534;28;20041;-69
2023/01/30 08:39:14;;;;;;;14.90;7.40;;;;;;;5.37;68.19;101437.13;4997506;28;20034;-69
2023/01/30 08:41:41;;;;;;;17.35;7.55;;;;;;;5.57;68.35;101436.94;4997426;28;20030;-69
2023/01/30 08:44:08;;;;;;;13.60;6.57;;;;;;;5.68;67.45;101425.16;4997625;28;20069;-69
2023/01/30 08:46:33;;;;;;;13.47;6.60;;;;;;;5.77;67.37;101428.91;4997620;28;20110;-69
2023/01/30 08:48:59;;;;;;;13.80;6.95;;;;;;;5.79;67.37;101433.38;4997204;28;20094;-69
2023/01/30 08:51:24;;;;;;;14.40;7.10;;;;;;;5.73;66.90;101431.44;4997343;28;20483;-69
2023/01/30 08:53:49;;;;;;;14.93;7.23;;;;;;;5.66;67.55;101434.66;4997337;28;20517;-69
2023/01/30 08:56:15;;;;;;;16.40;7.70;;;;;;;5.68;67.50;101439.94;4997539;28;20430;-69
2023/01/30 08:58:42;;;;;;;15.17;7.20;;;;;;;5.81;66.80;101431.69;4997483;28;20030;-69
2023/01/30 09:01:08;;;;;;;14.95;7.00;;;;;;;6.88;67.13;101432.53;4997346;28;20022;-69
2023/01/30 09:03:34;;;;;;;11.32;6.00;;;;;;;8.29;66.27;101424.91;4995869;28;20505;-69
2023/01/30 09:05:59;;;;;;;11.70;5.70;;;;;;;9.77;64.59;101413.13;4997096;28;20034;-69
2023/01/30 09:08:25;;;;;;;10.35;6.10;;;;;;;11.25;62.36;101398.59;4997223;28;20506;-69
2023/01/30 09:10:50;;;;;;;10.57;5.37;;;;;;;13.29;59.49;101388.63;4999061;28;20038;-69
2023/01/30 09:13:16;;;;;;;9.10;4.93;;;;;;;15.55;57.39;101377.63;5001089;28;20081;-69
2023/01/30 09:15:42;;;;;;;9.60;5.13;;;;;;;17.62;54.18;101362.97;5001187;28;20487;-69
2023/01/30 09:18:07;;;;;;;9.77;5.23;;;;;;;19.38;50.87;101362.31;5001026;28;20433;-69
2023/01/30 09:20:32;;;;;;;9.13;5.38;;;;;;;20.93;49.25;101364.53;5000864;28;20022;-69
2023/01/30 09:22:58;;;;;;;9.47;5.17;;;;;;;22.28;47.08;101358.44;5000982;28;20580;-69
2023/01/30 09:25:24;;;;;;;9.47;5.30;;;;;;;23.27;45.11;101362.81;5001161;28;20886;-69
2023/01/30 09:27:49;;;;;;;9.32;5.88;;;;;;;24.17;44.12;101375.28;5000841;28;20030;-68
2023/01/30 09:30:16;;;;;;;9.47;5.30;;;;;;;24.69;41.92;101371.19;5013020;28;20101;-69
2023/01/30 09:32:41;;;;;;;7.88;5.07;;;;;;;24.93;41.13;101358.41;5000623;28;20026;-69
2023/01/30 09:35:07;;;;;;;8.03;5.13;;;;;;;25.30;40.81;101371.09;5000596;28;20029;-68
2023/01/30 09:37:33;;;;;;;8.18;5.40;;;;;;;25.84;40.44;101372.97;5000731;28;20030;-68
2023/01/30 09:39:58;;;;;;;9.47;5.90;;;;;;;26.26;39.03;101377.13;5000927;28;20068;-69
2023/01/30 09:42:32;;;;;;;8.47;5.73;;;;;;;26.58;37.04;101373.66;5000589;28;20297;-69
2023/01/30 09:45:32;;;;;;;7.70;5.60;;;;;;;26.91;36.77;101379.09;5000690;28;20032;-69
2023/01/30 09:48:29;;;;;;;8.23;5.20;;;;;;;27.17;36.09;101378.56;5007021;28;20034;-69
2023/01/30 09:51:01;;;;;;;7.47;5.10;;;;;;;27.57;36.76;101383.53;5000398;28;20034;-69
2023/01/30 09:53:29;;;;;;;7.88;5.10;;;;;;;28.13;34.93;101383.84;4999452;28;20403;-69
2023/01/30 09:55:58;;;;;;;7.53;4.60;;;;;;;27.19;37.54;101382.06;5000609;28;20037;-69
2023/01/30 09:58:29;;;;;;;7.80;4.63;;;;;;;25.01;39.55;101392.22;5000358;28;20085;-68
2023/01/30 10:01:05;;;;;;;7.60;5.07;;;;;;;24.12;38.47;101398.84;5000485;28;20036;-68
2023/01/30 10:03:40;;;;;;;8.25;5.00;;;;;;;23.89;38.52;101397.06;5000240;28;20030;-68
2023/01/30 10:06:11;;;;;;;8.02;4.78;;;;;;;22.72;40.37;101406.97;5000203;28;20042;-68
2023/01/30 10:08:39;;;;;;;8.10;4.80;;;;;;;23.27;41.39;101404.94;5000009;28;20056;-68
2023/01/30 10:11:40;;;;;;;6.72;4.53;;;;;;;23.79;39.64;101405.53;5000119;28;20104;-68
2023/01/30 10:14:35;;;;;;;6.63;4.53;;;;;;;24.54;37.91;101405.09;5000250;28;20037;-68
2023/01/30 10:17:03;;;;;;;7.57;5.18;;;;;;;25.70;39.68;101406.91;4993453;28;20026;-68
2023/01/30 10:19:59;;;;;;;7.55;4.80;;;;;;;26.60;37.55;101401.47;4998664;28;20406;-68
2023/01/30 10:22:34;;;;;;;6.65;4.63;;;;;;;27.31;37.38;101411.13;4999395;28;20479;-69
2023/01/30 10:25:36;;;;;;;6.88;4.93;;;;;;;27.62;33.94;101406.69;5000072;28;20045;-68
2023/01/30 10:28:35;;;;;;;7.63;5.47;;;;;;;27.99;35.71;101409.03;4999929;28;20579;-68
2023/01/30 10:31:08;;;;;;;7.40;5.13;;;;;;;28.49;34.02;101406.97;4999300;28;20045;-69
2023/01/30 10:33:57;;;;;;;7.82;5.22;;;;;;;27.67;35.07;101406.41;4999811;28;20034;-68
2023/01/30 10:36:31;;;;;;;6.97;5.00;;;;;;;27.87;34.97;101405.22;4989463;28;20061;-68
2023/01/30 10:39:00;;;;;;;7.75;4.53;;;;;;;26.87;36.09;101407.22;4999684;28;20057;-68
2023/01/30 10:41:35;;;;;;;8.17;5.17;;;;;;;26.16;34.84;101413.59;4999520;28;20411;-68
2023/01/30 10:44:10;;;;;;;6.82;4.63;;;;;;;25.85;35.19;101409.78;4999423;28;20088;-69
2023/01/30 10:46:46;;;;;;;8.38;5.40;;;;;;;25.62;37.87;101409.09;4998056;28;20499;-68
2023/01/30 10:49:51;;;;;;;7.47;4.88;;;;;;;23.54;38.71;101404.78;4999286;28;20028;-68
2023/01/30 10:52:51;;;;;;;7.72;5.35;;;;;;;24.36;37.32;101399.56;4998023;28;20117;-68
2023/01/30 10:55:36;;;;;;;7.87;4.80;;;;;;;24.85;38.05;101392.06;4999103;28;20483;-68
2023/01/30 10:58:25;;;;;;;7.03;4.50;;;;;;;24.15;38.06;101392.41;4999388;28;20058;-68
2023/01/30 11:00:54;;;;;;;8.23;4.78;;;;;;;23.29;39.01;101392.34;5014313;28;20041;-68
2023/01/30 11:03:40;;;;;;;8.25;4.65;;;;;;;22.88;35.77;101383.09;4997620;28;20070;-68
2023/01/30 11:06:22;;;;;;;8.77;4.50;;;;;;;22.92;39.66;101386.56;4998996;28;20045;-68
2023/01/30 11:08:48;;;;;;;7.53;5.10;;;;;;;23.44;40.92;101380.94;5014003;28;20065;-68
2023/01/30 11:11:20;;;;;;;7.90;4.80;;;;;;;23.16;38.52;101376.66;5013883;28;20483;-68
2023/01/30 11:13:45;;;;;;;9.35;4.68;;;;;;;23.50;40.47;101375.31;4999084;28;20032;-68
2023/01/30 11:16:12;;;;;;;7.77;5.23;;;;;;;23.73;40.11;101386.09;4998734;28;20035;-68
2023/01/30 11:18:49;;;;;;;8.60;5.00;;;;;;;23.60;37.45;101383.03;4998992;28;20053;-68
2023/01/30 11:21:36;;;;;;;7.72;5.00;;;;;;;23.17;35.95;101377.53;4998426;28;20031;-68
2023/01/30 11:24:15;;;;;;;8.07;5.10;;;;;;;22.69;40.59;101377.56;4998826;28;20462;-68
2023/01/30 11:26:42;;;;;;;8.17;5.40;;;;;;;22.31;42.87;101377.97;4998851;28;20026;-68
2023/01/30 11:29:30;;;;;;;9.27;5.78;;;;;;;21.44;36.47;101372.78;4998760;28;20105;-69
2023/01/30 11:32:01;;;;;;;8.07;5.03;;;;;;;21.11;42.81;101377.41;4998696;28;20030;-68
2023/01/30 11:34:26;;;;;;;7.53;4.70;;;;;;;20.84;44.71;101388.88;4997971;28;20036;-69
2023/01/30 11:36:52;;;;;;;8.93;4.70;;;;;;;19.88;46.52;101380.69;5013468;28;20038;-68
2023/01/30 11:39:22;;;;;;;8.33;5.13;;;;;;;19.12;47.11;101382.47;4998420;28;20068;-68
2023/01/30 11:41:54;;;;;;;8.02;5.10;;;;;;;18.38;45.84;101379.47;4997235;28;20509;-68